Sheridan, NY (14135)

4:42 PM EDT on May 22, 2015 (GMT -0400)
Chautauqua County-Dunkirk | | Change Station
CLOSE
Current Station
Airport
Location: Dunkirk,
Elevation: 692 ft
Nearby Weather Stations
Active Advisory: Freeze Warning

Elev 692 ft 42.49 °N, 79.28 °W | Updated 49 minutes ago

Light Rain
Light Rain
58 °F
Feels Like 58 °F
N
18
Wind Variable Wind from WSW
Gusts 29 mph

Today
High -- | Low -- °F
--% Chance of Precip.
Yesterday
High -- | Low -- °F
Precip. -- in
5:48 AM 8:38 PM
Waxing Crescent, 24% visible
Pressure 30.14 in
Visibility 10.0 miles
Clouds Clear
Dew Point 38 °F
Humidity 47%
Rainfall 0.00 in
Snow Depth Not available.
UV 8 out of 12
Pollen 8.80 out of 12
Air Quality Not available.
Flu Activity Widespread
METAR KDKK 221953Z AUTO 25016G25KT 10SM -RA CLR 14/03 A3014 RMK AO2 PK WND 24030/1942 SLP207 P0000 T01440033

More Conditions Fewer Conditions

Pressure 30.14 in
Visibility 10.0 miles
Clouds Clear
Dew Point 38 °F
Humidity 47%
Rainfall 0.00 in
Snow Depth Not available.
UV 8 out of 12
Pollen 8.80 out of 12
Air Quality Not available.
Flu Activity Widespread
METAR KDKK 221953Z AUTO 25016G25KT 10SM -RA CLR 14/03 A3014 RMK AO2 PK WND 24030/1942 SLP207 P0000 T01440033

More Conditions Fewer Conditions

10-Day Weather Forecast

Almanac

Astronomy

May. 22, 2015 Rise Set
Actual Time
Civil Twilight
Nautical Twilight
Astronomical Twilight
Moon
Length of Visible Light
Length of Day
Tomorrow will be .
, % of the Moon is Illuminated

Today's Extremes

State Highs State Lows

Community

WunderPhotos

Upload Photos

1,823,295 photos uploaded!

WunderBlogs® & News

Nearby

Air Quality

  Air Quality AQ Index Pollutant
Not available.

Snow Depth

Station Depth Elevation

Earthquake Activity

City Distance Mag. Time & Date
Minimum magnitude displayed is 2.5.

Coastal Water Temperatures

Place Temperature

Stations

Nearby Weather Stations

Station Location Temp. Windchill Dew Point Humidity Wind Precip. Elev Updated Type
                   
Freeze Warning
Statement as of 3:24 PM EDT on May 22, 2015

... Freeze warning remains in effect from midnight tonight to 9 am
EDT Saturday...

* locations... Wyoming... Livingston... Cattaraugus... and Allegany
counties... and portions of southern Erie and Chautauqua
counties away from the immediate Lake Erie shoreline.

* Timing... from midnight tonight through late Saturday morning.

* Temperatures... around 30.

* Impacts... such temperatures will result in damage to tender
vegetation unless protective measures are taken.

Precautionary/preparedness actions...

A freeze warning is issued when freezing temperatures are
forecast to threaten outdoor plants. If you are in the warned
area you should protect tender vegetation. Also... potted plants
normally left outdoors should be covered or brought inside away
from the cold. Stay tuned to weather radio or other radio and TV
stations for further details or updates.